Nixon, Mississippi
Current Conditions -  °F | °C
As of 5:53 PM on Friday 24 Oct 2014 (Local Time) from KTUP Reporting Station
Clear Clear  
Wind Chill: 67°   Ceiling: Unl
Heat Index: 67°   Visibility: 10mi
Dew Point: 49°   Wind: 0mph
Humidity: 52%   Direction: NA
Pressure: 30.07"   Gusts: NA
Location:  34.1762°N, 88.9612°W
Report Text: KTUP 242253Z AUTO 00000KT 10SM CLR 19/09 A3007 RMK AO2 SLP182 T01940094
Loading
Personal Weather Stations






























Interactive Weather Map
Tropical Storm Tracking
New forecast layout! Learn more

10-Day Weather Forecast

Advertisements
Track Severe Weather on mobile